sensor_id;sensor_type;location;lat;lon;timestamp;pressure;altitude;pressure_sealevel;temperature;humidity
61769;BME280;47669;48.712;9.016;2024-03-23T00:55:03;95903.91;;;5.47;91.91
61769;BME280;47669;48.712;9.016;2024-03-23T00:57:28;95901.88;;;5.43;92.32
61769;BME280;47669;48.712;9.016;2024-03-23T00:59:53;95896.47;;;5.51;92.14
61769;BME280;47669;48.712;9.016;2024-03-23T01:02:19;95898.50;;;5.56;92.28
61769;BME280;47669;48.712;9.016;2024-03-23T01:04:44;95895.94;;;5.69;91.73
61769;BME280;47669;48.712;9.016;2024-03-23T01:07:09;95889.75;;;5.83;90.63
61769;BME280;47669;48.712;9.016;2024-03-23T01:09:34;95889.97;;;5.88;91.42
61769;BME280;47669;48.712;9.016;2024-03-23T01:12:00;95878.25;;;5.84;91.41
61769;BME280;47669;48.712;9.016;2024-03-23T01:14:26;95879.41;;;5.68;92.59
61769;BME280;47669;48.712;9.016;2024-03-23T01:16:52;95871.50;;;6.03;90.27
61769;BME280;47669;48.712;9.016;2024-03-23T01:19:17;95874.31;;;6.22;89.65
61769;BME280;47669;48.712;9.016;2024-03-23T01:21:42;95874.50;;;6.00;90.38
61769;BME280;47669;48.712;9.016;2024-03-23T01:24:08;95868.88;;;6.03;91.25
61769;BME280;47669;48.712;9.016;2024-03-23T01:26:35;95866.81;;;5.99;91.26
61769;BME280;47669;48.712;9.016;2024-03-23T01:29:02;95858.50;;;5.88;91.62
61769;BME280;47669;48.712;9.016;2024-03-23T01:31:27;95863.94;;;5.80;91.99
61769;BME280;47669;48.712;9.016;2024-03-23T01:33:52;95866.16;;;5.90;92.45
61769;BME280;47669;48.712;9.016;2024-03-23T01:36:18;95867.22;;;5.96;92.34
61769;BME280;47669;48.712;9.016;2024-03-23T01:38:43;95861.84;;;6.37;89.64
61769;BME280;47669;48.712;9.016;2024-03-23T01:41:08;95857.53;;;5.96;91.78
61769;BME280;47669;48.712;9.016;2024-03-23T01:43:34;95848.50;;;6.05;90.67
61769;BME280;47669;48.712;9.016;2024-03-23T01:45:59;95848.22;;;5.94;91.43
61769;BME280;47669;48.712;9.016;2024-03-23T01:48:24;95830.75;;;6.27;90.89
61769;BME280;47669;48.712;9.016;2024-03-23T01:50:49;95836.59;;;6.23;91.48
61769;BME280;47669;48.712;9.016;2024-03-23T01:53:15;95841.63;;;6.24;91.23
61769;BME280;47669;48.712;9.016;2024-03-23T01:55:43;95818.97;;;6.90;87.90
61769;BME280;47669;48.712;9.016;2024-03-23T01:58:08;95808.63;;;7.22;87.16
61769;BME280;47669;48.712;9.016;2024-03-23T02:00:33;95808.16;;;7.31;85.91
61769;BME280;47669;48.712;9.016;2024-03-23T02:02:58;95805.34;;;7.33;85.54
61769;BME280;47669;48.712;9.016;2024-03-23T02:05:24;95805.19;;;7.14;86.70
61769;BME280;47669;48.712;9.016;2024-03-23T02:07:50;95810.31;;;6.83;88.45
61769;BME280;47669;48.712;9.016;2024-03-23T02:10:15;95805.28;;;6.88;88.03
61769;BME280;47669;48.712;9.016;2024-03-23T02:12:41;95795.81;;;6.73;88.59
61769;BME280;47669;48.712;9.016;2024-03-23T02:15:06;95782.91;;;6.52;87.95
61769;BME280;47669;48.712;9.016;2024-03-23T02:17:33;95777.22;;;6.82;88.22
61769;BME280;47669;48.712;9.016;2024-03-23T02:19:59;95782.22;;;6.83;87.25
61769;BME280;47669;48.712;9.016;2024-03-23T02:22:25;95784.28;;;6.75;87.52
61769;BME280;47669;48.712;9.016;2024-03-23T02:24:50;95767.06;;;6.99;87.12
61769;BME280;47669;48.712;9.016;2024-03-23T02:27:15;95773.91;;;7.00;87.75
61769;BME280;47669;48.712;9.016;2024-03-23T02:29:41;95776.22;;;6.69;88.51
61769;BME280;47669;48.712;9.016;2024-03-23T02:32:06;95770.47;;;7.06;87.34
61769;BME280;47669;48.712;9.016;2024-03-23T02:34:34;95780.75;;;7.14;87.55
61769;BME280;47669;48.712;9.016;2024-03-23T02:36:59;95779.97;;;7.52;85.90
61769;BME280;47669;48.712;9.016;2024-03-23T02:39:25;95764.13;;;7.65;85.73
61769;BME280;47669;48.712;9.016;2024-03-23T02:41:51;95769.75;;;7.37;86.25
61769;BME280;47669;48.712;9.016;2024-03-23T02:44:16;95766.06;;;7.77;85.55
61769;BME280;47669;48.712;9.016;2024-03-23T02:46:41;95768.09;;;7.81;85.15
61769;BME280;47669;48.712;9.016;2024-03-23T02:49:07;95760.53;;;7.91;84.78
61769;BME280;47669;48.712;9.016;2024-03-23T02:51:32;95758.13;;;7.90;85.54
61769;BME280;47669;48.712;9.016;2024-03-23T02:53:58;95759.34;;;7.87;85.31
61769;BME280;47669;48.712;9.016;2024-03-23T02:56:23;95752.28;;;7.88;85.53
61769;BME280;47669;48.712;9.016;2024-03-23T02:58:48;95745.13;;;7.63;85.76
61769;BME280;47669;48.712;9.016;2024-03-23T03:01:14;95749.38;;;7.19;88.46
61769;BME280;47669;48.712;9.016;2024-03-23T03:03:39;95740.69;;;7.19;88.97
61769;BME280;47669;48.712;9.016;2024-03-23T03:06:04;95743.22;;;6.93;89.72
61769;BME280;47669;48.712;9.016;2024-03-23T03:08:29;95748.31;;;7.33;89.14
61769;BME280;47669;48.712;9.016;2024-03-23T03:10:55;95747.56;;;7.65;86.79
61769;BME280;47669;48.712;9.016;2024-03-23T03:13:20;95744.19;;;7.51;87.93
61769;BME280;47669;48.712;9.016;2024-03-23T03:15:46;95737.69;;;7.60;86.60
61769;BME280;47669;48.712;9.016;2024-03-23T03:18:11;95730.91;;;7.39;87.92
61769;BME280;47669;48.712;9.016;2024-03-23T03:20:38;95736.97;;;7.40;87.75
61769;BME280;47669;48.712;9.016;2024-03-23T03:23:04;95727.25;;;7.40;88.48
61769;BME280;47669;48.712;9.016;2024-03-23T03:25:29;95720.81;;;7.36;88.67
61769;BME280;47669;48.712;9.016;2024-03-23T03:27:55;95721.94;;;7.53;87.97
61769;BME280;47669;48.712;9.016;2024-03-23T03:30:20;95722.63;;;7.36;87.83
61769;BME280;47669;48.712;9.016;2024-03-23T03:32:46;95717.19;;;7.69;87.34
61769;BME280;47669;48.712;9.016;2024-03-23T03:35:11;95714.75;;;7.36;88.34
61769;BME280;47669;48.712;9.016;2024-03-23T03:37:36;95710.16;;;7.63;87.91
61769;BME280;47669;48.712;9.016;2024-03-23T03:40:02;95710.78;;;7.58;87.92
61769;BME280;47669;48.712;9.016;2024-03-23T03:42:28;95709.50;;;7.36;88.99
61769;BME280;47669;48.712;9.016;2024-03-23T03:44:53;95698.28;;;7.53;88.28
61769;BME280;47669;48.712;9.016;2024-03-23T03:47:19;95691.22;;;7.16;88.63
61769;BME280;47669;48.712;9.016;2024-03-23T03:49:44;95680.41;;;7.30;89.06
61769;BME280;47669;48.712;9.016;2024-03-23T03:52:09;95677.22;;;6.77;91.08
61769;BME280;47669;48.712;9.016;2024-03-23T03:54:34;95664.28;;;6.82;90.85
61769;BME280;47669;48.712;9.016;2024-03-23T03:57:00;95654.72;;;6.94;90.78
61769;BME280;47669;48.712;9.016;2024-03-23T03:59:26;95652.25;;;7.06;90.50
61769;BME280;47669;48.712;9.016;2024-03-23T04:01:51;95643.31;;;7.13;89.98
61769;BME280;47669;48.712;9.016;2024-03-23T04:04:16;95645.72;;;7.15;90.45
61769;BME280;47669;48.712;9.016;2024-03-23T04:06:43;95636.38;;;7.51;90.12
61769;BME280;47669;48.712;9.016;2024-03-23T04:09:09;95627.81;;;7.62;88.81
61769;BME280;47669;48.712;9.016;2024-03-23T04:11:35;95611.94;;;7.19;90.49
61769;BME280;47669;48.712;9.016;2024-03-23T04:14:00;95601.81;;;7.22;91.41
61769;BME280;47669;48.712;9.016;2024-03-23T04:16:32;95604.91;;;7.44;91.37
61769;BME280;47669;48.712;9.016;2024-03-23T04:18:57;95608.28;;;7.77;89.75
61769;BME280;47669;48.712;9.016;2024-03-23T04:21:22;95615.78;;;8.16;88.54
61769;BME280;47669;48.712;9.016;2024-03-23T04:23:48;95617.41;;;8.43;87.12
61769;BME280;47669;48.712;9.016;2024-03-23T04:26:14;95614.63;;;8.31;87.56
61769;BME280;47669;48.712;9.016;2024-03-23T04:28:40;95618.59;;;8.22;88.08
61769;BME280;47669;48.712;9.016;2024-03-23T04:31:05;95612.88;;;8.25;88.28
61769;BME280;47669;48.712;9.016;2024-03-23T04:33:31;95609.59;;;8.11;88.76
61769;BME280;47669;48.712;9.016;2024-03-23T04:35:56;95638.31;;;8.12;89.01
61769;BME280;47669;48.712;9.016;2024-03-23T04:38:22;95631.19;;;7.94;89.64
61769;BME280;47669;48.712;9.016;2024-03-23T04:41:05;95623.59;;;8.48;88.06
61769;BME280;47669;48.712;9.016;2024-03-23T04:43:30;95639.84;;;8.64;87.66
61769;BME280;47669;48.712;9.016;2024-03-23T04:45:56;95650.88;;;8.54;88.56
61769;BME280;47669;48.712;9.016;2024-03-23T04:48:22;95658.47;;;8.44;88.93
61769;BME280;47669;48.712;9.016;2024-03-23T04:50:48;95677.03;;;8.30;91.41
61769;BME280;47669;48.712;9.016;2024-03-23T04:53:14;95678.09;;;8.23;95.02
61769;BME280;47669;48.712;9.016;2024-03-23T04:55:40;95674.25;;;8.00;98.17
61769;BME280;47669;48.712;9.016;2024-03-23T04:58:06;95681.66;;;8.10;99.76
61769;BME280;47669;48.712;9.016;2024-03-23T05:00:31;95685.66;;;7.94;100.00
61769;BME280;47669;48.712;9.016;2024-03-23T05:02:56;95692.31;;;7.97;100.00
61769;BME280;47669;48.712;9.016;2024-03-23T05:05:21;95689.16;;;8.06;100.00
61769;BME280;47669;48.712;9.016;2024-03-23T05:07:47;95680.84;;;8.09;100.00
61769;BME280;47669;48.712;9.016;2024-03-23T05:10:12;95677.19;;;8.10;100.00
61769;BME280;47669;48.712;9.016;2024-03-23T05:12:38;95678.81;;;8.11;100.00
61769;BME280;47669;48.712;9.016;2024-03-23T05:15:05;95687.56;;;8.05;100.00
61769;BME280;47669;48.712;9.016;2024-03-23T05:17:34;95693.63;;;8.06;100.00
61769;BME280;47669;48.712;9.016;2024-03-23T05:19:59;95679.53;;;8.00;100.00
61769;BME280;47669;48.712;9.016;2024-03-23T05:22:25;95688.16;;;8.07;100.00
61769;BME280;47669;48.712;9.016;2024-03-23T05:24:50;95686.81;;;7.98;100.00
61769;BME280;47669;48.712;9.016;2024-03-23T05:27:16;95689.22;;;8.00;100.00
61769;BME280;47669;48.712;9.016;2024-03-23T05:29:41;95693.09;;;7.97;100.00
61769;BME280;47669;48.712;9.016;2024-03-23T05:32:06;95698.94;;;7.99;100.00
61769;BME280;47669;48.712;9.016;2024-03-23T05:34:32;95698.56;;;7.95;100.00
61769;BME280;47669;48.712;9.016;2024-03-23T05:36:57;95705.31;;;7.85;100.00
61769;BME280;47669;48.712;9.016;2024-03-23T05:39:22;95727.56;;;7.89;100.00
61769;BME280;47669;48.712;9.016;2024-03-23T05:41:48;95730.19;;;7.89;100.00
61769;BME280;47669;48.712;9.016;2024-03-23T05:44:14;95752.28;;;7.88;100.00
61769;BME280;47669;48.712;9.016;2024-03-23T05:46:40;95756.28;;;7.90;100.00
61769;BME280;47669;48.712;9.016;2024-03-23T05:49:05;95760.63;;;7.78;100.00
61769;BME280;47669;48.712;9.016;2024-03-23T05:51:30;95761.81;;;7.82;100.00
61769;BME280;47669;48.712;9.016;2024-03-23T05:53:56;95754.66;;;7.64;100.00
61769;BME280;47669;48.712;9.016;2024-03-23T05:56:21;95758.75;;;7.53;100.00
61769;BME280;47669;48.712;9.016;2024-03-23T05:58:46;95767.03;;;7.50;100.00
61769;BME280;47669;48.712;9.016;2024-03-23T06:01:11;95767.94;;;7.31;98.28
61769;BME280;47669;48.712;9.016;2024-03-23T06:03:38;95785.91;;;7.34;97.83
61769;BME280;47669;48.712;9.016;2024-03-23T06:06:03;95784.56;;;7.18;98.45
61769;BME280;47669;48.712;9.016;2024-03-23T06:08:29;95790.03;;;7.17;97.71
61769;BME280;47669;48.712;9.016;2024-03-23T06:10:54;95790.47;;;7.13;97.79
61769;BME280;47669;48.712;9.016;2024-03-23T06:13:20;95794.09;;;7.06;97.68
61769;BME280;47669;48.712;9.016;2024-03-23T06:15:46;95790.28;;;7.02;98.69
61769;BME280;47669;48.712;9.016;2024-03-23T06:18:11;95792.72;;;7.03;97.63
61769;BME280;47669;48.712;9.016;2024-03-23T06:20:37;95792.09;;;7.01;98.53
61769;BME280;47669;48.712;9.016;2024-03-23T06:23:02;95796.31;;;7.16;99.68
61769;BME280;47669;48.712;9.016;2024-03-23T06:25:29;95803.38;;;7.15;98.13
61769;BME280;47669;48.712;9.016;2024-03-23T06:27:54;95806.22;;;7.07;97.31
61769;BME280;47669;48.712;9.016;2024-03-23T06:30:20;95813.50;;;6.98;96.14
61769;BME280;47669;48.712;9.016;2024-03-23T06:32:45;95821.81;;;6.95;98.46
61769;BME280;47669;48.712;9.016;2024-03-23T06:35:10;95827.28;;;6.93;98.43
61769;BME280;47669;48.712;9.016;2024-03-23T06:37:36;95842.63;;;6.97;98.10
61769;BME280;47669;48.712;9.016;2024-03-23T06:40:01;95842.03;;;7.01;97.82
61769;BME280;47669;48.712;9.016;2024-03-23T06:42:27;95837.34;;;7.10;97.88
61769;BME280;47669;48.712;9.016;2024-03-23T06:44:52;95864.03;;;7.07;97.75
61769;BME280;47669;48.712;9.016;2024-03-23T06:47:17;95862.22;;;7.07;96.68
61769;BME280;47669;48.712;9.016;2024-03-23T06:49:42;95863.84;;;7.02;97.17
61769;BME280;47669;48.712;9.016;2024-03-23T06:52:08;95862.22;;;6.94;95.60
61769;BME280;47669;48.712;9.016;2024-03-23T06:54:33;95868.47;;;7.00;95.41
61769;BME280;47669;48.712;9.016;2024-03-23T06:56:58;95868.50;;;6.86;95.92
61769;BME280;47669;48.712;9.016;2024-03-23T06:59:23;95886.69;;;6.81;95.49
61769;BME280;47669;48.712;9.016;2024-03-23T07:01:49;95896.38;;;6.87;94.78
61769;BME280;47669;48.712;9.016;2024-03-23T07:04:15;95898.19;;;6.87;95.84
61769;BME280;47669;48.712;9.016;2024-03-23T07:06:44;95904.25;;;6.87;95.92
61769;BME280;47669;48.712;9.016;2024-03-23T07:09:09;95912.94;;;7.01;96.65
61769;BME280;47669;48.712;9.016;2024-03-23T07:11:35;95922.25;;;7.04;97.03
61769;BME280;47669;48.712;9.016;2024-03-23T07:14:01;95902.03;;;7.04;96.92
61769;BME280;47669;48.712;9.016;2024-03-23T07:16:30;95913.34;;;7.18;96.77
61769;BME280;47669;48.712;9.016;2024-03-23T07:18:55;95925.50;;;6.86;96.72
61769;BME280;47669;48.712;9.016;2024-03-23T07:21:20;95935.16;;;6.92;97.20
61769;BME280;47669;48.712;9.016;2024-03-23T07:23:46;95932.75;;;6.70;97.52
61769;BME280;47669;48.712;9.016;2024-03-23T07:26:11;95930.91;;;6.64;97.87
61769;BME280;47669;48.712;9.016;2024-03-23T07:28:37;95934.94;;;6.60;97.83
61769;BME280;47669;48.712;9.016;2024-03-23T07:33:29;95954.53;;;6.44;96.79
61769;BME280;47669;48.712;9.016;2024-03-23T07:35:54;95956.13;;;6.45;97.24
61769;BME280;47669;48.712;9.016;2024-03-23T07:38:19;95963.59;;;6.42;97.14
61769;BME280;47669;48.712;9.016;2024-03-23T07:40:45;95962.03;;;6.54;97.89
61769;BME280;47669;48.712;9.016;2024-03-23T07:43:10;95960.59;;;6.58;96.13
61769;BME280;47669;48.712;9.016;2024-03-23T07:45:35;95958.19;;;6.63;95.33
61769;BME280;47669;48.712;9.016;2024-03-23T07:48:03;95962.63;;;6.63;95.37
61769;BME280;47669;48.712;9.016;2024-03-23T07:50:28;95966.88;;;6.57;95.76
61769;BME280;47669;48.712;9.016;2024-03-23T07:52:53;95975.16;;;6.61;95.86
61769;BME280;47669;48.712;9.016;2024-03-23T07:55:19;95993.53;;;6.61;94.74
61769;BME280;47669;48.712;9.016;2024-03-23T07:57:44;95976.91;;;6.40;95.71
61769;BME280;47669;48.712;9.016;2024-03-23T08:00:09;95990.84;;;6.47;96.33
61769;BME280;47669;48.712;9.016;2024-03-23T08:02:35;96004.22;;;6.59;96.50
61769;BME280;47669;48.712;9.016;2024-03-23T08:05:00;96014.72;;;6.52;96.49
61769;BME280;47669;48.712;9.016;2024-03-23T08:07:25;96018.97;;;6.60;96.77
61769;BME280;47669;48.712;9.016;2024-03-23T08:09:51;96015.31;;;6.48;95.54
61769;BME280;47669;48.712;9.016;2024-03-23T08:12:16;96007.28;;;6.69;94.96
61769;BME280;47669;48.712;9.016;2024-03-23T08:14:41;96009.50;;;6.66;92.08
61769;BME280;47669;48.712;9.016;2024-03-23T08:17:07;96015.75;;;6.65;92.10
61769;BME280;47669;48.712;9.016;2024-03-23T08:19:32;96041.50;;;6.35;88.45
61769;BME280;47669;48.712;9.016;2024-03-23T08:21:57;96052.69;;;6.50;86.90
61769;BME280;47669;48.712;9.016;2024-03-23T08:24:22;96060.34;;;6.58;87.40
61769;BME280;47669;48.712;9.016;2024-03-23T08:26:48;96068.28;;;6.65;86.98
61769;BME280;47669;48.712;9.016;2024-03-23T08:29:13;96083.31;;;6.43;86.84
61769;BME280;47669;48.712;9.016;2024-03-23T08:31:38;96075.84;;;6.40;87.59
61769;BME280;47669;48.712;9.016;2024-03-23T08:34:04;96092.06;;;6.50;86.69
61769;BME280;47669;48.712;9.016;2024-03-23T08:36:29;96100.28;;;6.40;86.41
61769;BME280;47669;48.712;9.016;2024-03-23T08:38:55;96107.41;;;6.60;86.69
61769;BME280;47669;48.712;9.016;2024-03-23T08:41:21;96102.56;;;6.57;86.21
61769;BME280;47669;48.712;9.016;2024-03-23T08:43:46;96093.09;;;6.62;83.84
61769;BME280;47669;48.712;9.016;2024-03-23T08:46:13;96087.56;;;6.37;82.58
61769;BME280;47669;48.712;9.016;2024-03-23T08:48:46;96087.97;;;6.47;82.80
61769;BME280;47669;48.712;9.016;2024-03-23T08:51:14;96091.91;;;6.65;83.13
61769;BME280;47669;48.712;9.016;2024-03-23T08:53:41;96097.38;;;6.70;83.39
61769;BME280;47669;48.712;9.016;2024-03-23T08:56:07;96093.97;;;6.76;81.38
61769;BME280;47669;48.712;9.016;2024-03-23T08:58:34;96107.88;;;6.77;81.86
61769;BME280;47669;48.712;9.016;2024-03-23T09:01:08;96123.22;;;6.73;80.70
61769;BME280;47669;48.712;9.016;2024-03-23T09:03:34;96133.97;;;6.78;81.63
61769;BME280;47669;48.712;9.016;2024-03-23T09:06:00;96139.34;;;6.57;80.44
61769;BME280;47669;48.712;9.016;2024-03-23T09:08:26;96156.00;;;6.84;81.08
61769;BME280;47669;48.712;9.016;2024-03-23T09:10:52;96171.06;;;6.62;81.76
61769;BME280;47669;48.712;9.016;2024-03-23T09:13:17;96174.53;;;6.69;80.71
61769;BME280;47669;48.712;9.016;2024-03-23T09:15:48;96191.31;;;6.75;81.21
61769;BME280;47669;48.712;9.016;2024-03-23T09:18:13;96199.28;;;6.88;79.84
61769;BME280;47669;48.712;9.016;2024-03-23T09:20:39;96198.06;;;6.90;81.33
61769;BME280;47669;48.712;9.016;2024-03-23T09:23:04;96197.00;;;6.43;80.71
61769;BME280;47669;48.712;9.016;2024-03-23T09:25:29;96194.06;;;7.01;79.22
61769;BME280;47669;48.712;9.016;2024-03-23T09:27:54;96182.63;;;6.74;79.34
61769;BME280;47669;48.712;9.016;2024-03-23T09:30:20;96176.91;;;7.05;80.10
61769;BME280;47669;48.712;9.016;2024-03-23T09:32:45;96182.63;;;7.22;75.88
61769;BME280;47669;48.712;9.016;2024-03-23T09:35:11;96188.69;;;7.29;76.51
61769;BME280;47669;48.712;9.016;2024-03-23T09:37:37;96182.75;;;7.01;75.51
61769;BME280;47669;48.712;9.016;2024-03-23T09:40:04;96180.97;;;7.14;75.12
61769;BME280;47669;48.712;9.016;2024-03-23T09:42:30;96180.28;;;6.92;74.22
61769;BME280;47669;48.712;9.016;2024-03-23T09:44:57;96184.53;;;7.00;73.92
61769;BME280;47669;48.712;9.016;2024-03-23T09:47:23;96193.28;;;7.14;74.36
61769;BME280;47669;48.712;9.016;2024-03-23T09:49:50;96179.38;;;7.20;74.68
61769;BME280;47669;48.712;9.016;2024-03-23T09:52:15;96203.56;;;7.09;76.07
61769;BME280;47669;48.712;9.016;2024-03-23T09:54:40;96189.91;;;6.79;73.45
61769;BME280;47669;48.712;9.016;2024-03-23T09:57:06;96190.16;;;7.52;74.54
61769;BME280;47669;48.712;9.016;2024-03-23T09:59:32;96179.63;;;7.52;69.31
61769;BME280;47669;48.712;9.016;2024-03-23T10:01:58;96183.09;;;8.26;69.45
61769;BME280;47669;48.712;9.016;2024-03-23T10:04:41;96172.97;;;7.76;67.61
61769;BME280;47669;48.712;9.016;2024-03-23T10:07:19;96166.09;;;8.02;68.53
61769;BME280;47669;48.712;9.016;2024-03-23T10:09:45;96169.50;;;8.29;67.78
61769;BME280;47669;48.712;9.016;2024-03-23T10:12:13;96168.94;;;8.13;67.13
61769;BME280;47669;48.712;9.016;2024-03-23T10:14:42;96154.78;;;7.88;66.04
61769;BME280;47669;48.712;9.016;2024-03-23T10:17:13;96165.09;;;7.96;64.36
61769;BME280;47669;48.712;9.016;2024-03-23T10:19:45;96165.06;;;7.89;64.67
61769;BME280;47669;48.712;9.016;2024-03-23T10:22:18;96163.28;;;7.97;66.52
61769;BME280;47669;48.712;9.016;2024-03-23T10:24:44;96160.84;;;8.15;65.71
61769;BME280;47669;48.712;9.016;2024-03-23T10:27:09;96158.22;;;8.15;66.47
61769;BME280;47669;48.712;9.016;2024-03-23T10:29:34;96171.56;;;7.67;64.46
61769;BME280;47669;48.712;9.016;2024-03-23T10:32:13;96161.66;;;7.75;64.75
61769;BME280;47669;48.712;9.016;2024-03-23T10:34:39;96160.19;;;7.40;63.83
61769;BME280;47669;48.712;9.016;2024-03-23T10:37:05;96156.97;;;7.51;65.59
61769;BME280;47669;48.712;9.016;2024-03-23T10:39:35;96170.53;;;7.54;66.48
61769;BME280;47669;48.712;9.016;2024-03-23T10:42:09;96169.84;;;7.12;66.99
61769;BME280;47669;48.712;9.016;2024-03-23T10:44:37;96173.88;;;7.15;68.75
61769;BME280;47669;48.712;9.016;2024-03-23T10:47:04;96196.19;;;6.78;72.37
61769;BME280;47669;48.712;9.016;2024-03-23T10:49:33;96233.16;;;5.70;79.54
61769;BME280;47669;48.712;9.016;2024-03-23T10:52:00;96272.00;;;4.94;86.60
61769;BME280;47669;48.712;9.016;2024-03-23T10:54:26;96278.59;;;4.07;91.86
61769;BME280;47669;48.712;9.016;2024-03-23T10:56:57;96284.56;;;3.70;95.57
61769;BME280;47669;48.712;9.016;2024-03-23T10:59:25;96247.97;;;3.15;96.60
61769;BME280;47669;48.712;9.016;2024-03-23T11:01:58;96210.56;;;3.92;97.15
61769;BME280;47669;48.712;9.016;2024-03-23T11:04:34;96222.69;;;3.85;95.17
61769;BME280;47669;48.712;9.016;2024-03-23T11:07:00;96226.63;;;4.04;94.69
61769;BME280;47669;48.712;9.016;2024-03-23T11:09:38;96223.53;;;4.23;92.48
61769;BME280;47669;48.712;9.016;2024-03-23T11:12:27;96228.06;;;4.74;92.52
61769;BME280;47669;48.712;9.016;2024-03-23T11:15:13;96230.72;;;4.96;91.70
61769;BME280;47669;48.712;9.016;2024-03-23T11:17:38;96226.41;;;5.24;89.96
61769;BME280;47669;48.712;9.016;2024-03-23T11:20:05;96216.72;;;5.61;91.76
61769;BME280;47669;48.712;9.016;2024-03-23T11:22:47;96222.81;;;4.89;89.33
61769;BME280;47669;48.712;9.016;2024-03-23T11:25:17;96218.91;;;5.58;91.07
61769;BME280;47669;48.712;9.016;2024-03-23T11:27:44;96223.22;;;5.65;89.57
61769;BME280;47669;48.712;9.016;2024-03-23T11:32:47;96205.97;;;5.78;85.52
61769;BME280;47669;48.712;9.016;2024-03-23T11:38:06;96205.69;;;6.85;82.91
61769;BME280;47669;48.712;9.016;2024-03-23T11:40:34;96210.31;;;6.77;82.13
61769;BME280;47669;48.712;9.016;2024-03-23T11:43:01;96208.19;;;6.52;82.02
61769;BME280;47669;48.712;9.016;2024-03-23T11:45:27;96209.34;;;6.49;81.72
61769;BME280;47669;48.712;9.016;2024-03-23T11:48:09;96203.44;;;6.69;81.75
61769;BME280;47669;48.712;9.016;2024-03-23T11:50:37;96212.44;;;6.25;78.51
61769;BME280;47669;48.712;9.016;2024-03-23T11:53:21;96206.28;;;6.39;80.73
61769;BME280;47669;48.712;9.016;2024-03-23T11:55:48;96202.88;;;6.80;77.65
61769;BME280;47669;48.712;9.016;2024-03-23T11:58:14;96195.53;;;6.69;72.52
61769;BME280;47669;48.712;9.016;2024-03-23T12:00:40;96197.72;;;6.59;72.61
61769;BME280;47669;48.712;9.016;2024-03-23T12:03:06;96196.84;;;6.51;72.17
61769;BME280;47669;48.712;9.016;2024-03-23T12:05:32;96197.34;;;6.68;72.09
61769;BME280;47669;48.712;9.016;2024-03-23T12:08:33;96197.16;;;6.70;70.33
61769;BME280;47669;48.712;9.016;2024-03-23T12:11:09;96195.16;;;6.79;70.45
61769;BME280;47669;48.712;9.016;2024-03-23T12:13:35;96183.72;;;6.93;72.13
61769;BME280;47669;48.712;9.016;2024-03-23T12:16:11;96197.63;;;6.87;70.57
61769;BME280;47669;48.712;9.016;2024-03-23T12:18:38;96187.81;;;6.61;67.97
61769;BME280;47669;48.712;9.016;2024-03-23T12:21:04;96185.41;;;7.07;70.84
61769;BME280;47669;48.712;9.016;2024-03-23T12:23:29;96186.50;;;7.46;68.05
61769;BME280;47669;48.712;9.016;2024-03-23T12:25:54;96177.34;;;7.16;66.67
61769;BME280;47669;48.712;9.016;2024-03-23T12:28:20;96174.44;;;6.97;66.68
61769;BME280;47669;48.712;9.016;2024-03-23T12:30:45;96168.78;;;7.00;67.76
61769;BME280;47669;48.712;9.016;2024-03-23T12:33:10;96174.28;;;6.64;67.77
61769;BME280;47669;48.712;9.016;2024-03-23T12:35:36;96176.00;;;6.85;69.77
61769;BME280;47669;48.712;9.016;2024-03-23T12:38:01;96172.03;;;7.09;70.44
61769;BME280;47669;48.712;9.016;2024-03-23T12:40:26;96166.56;;;7.04;66.82
61769;BME280;47669;48.712;9.016;2024-03-23T12:42:53;96180.13;;;7.01;68.07
61769;BME280;47669;48.712;9.016;2024-03-23T12:45:18;96176.47;;;6.95;67.60
61769;BME280;47669;48.712;9.016;2024-03-23T12:47:44;96200.13;;;7.02;69.77
61769;BME280;47669;48.712;9.016;2024-03-23T12:50:09;96191.09;;;7.18;70.46
61769;BME280;47669;48.712;9.016;2024-03-23T12:52:35;96180.97;;;7.21;68.98
61769;BME280;47669;48.712;9.016;2024-03-23T12:55:00;96174.50;;;7.24;69.69
61769;BME280;47669;48.712;9.016;2024-03-23T12:57:26;96175.69;;;7.08;69.64
61769;BME280;47669;48.712;9.016;2024-03-23T12:59:52;96175.19;;;7.59;67.69
61769;BME280;47669;48.712;9.016;2024-03-23T13:02:21;96168.50;;;7.43;69.35
61769;BME280;47669;48.712;9.016;2024-03-23T13:04:50;96178.13;;;7.09;69.21
61769;BME280;47669;48.712;9.016;2024-03-23T13:07:17;96170.16;;;7.84;67.44
61769;BME280;47669;48.712;9.016;2024-03-23T13:09:42;96156.31;;;8.62;63.39
61769;BME280;47669;48.712;9.016;2024-03-23T13:12:08;96162.81;;;9.05;61.34
61769;BME280;47669;48.712;9.016;2024-03-23T13:14:33;96173.34;;;8.46;60.33
61769;BME280;47669;48.712;9.016;2024-03-23T13:16:59;96194.38;;;7.33;59.18
61769;BME280;47669;48.712;9.016;2024-03-23T13:19:24;96183.25;;;7.51;60.91
61769;BME280;47669;48.712;9.016;2024-03-23T13:21:55;96178.66;;;6.91;57.95
61769;BME280;47669;48.712;9.016;2024-03-23T13:24:26;96157.13;;;6.61;58.96
61769;BME280;47669;48.712;9.016;2024-03-23T13:26:53;96147.66;;;6.67;57.69
61769;BME280;47669;48.712;9.016;2024-03-23T13:29:19;96140.41;;;7.90;53.32
61769;BME280;47669;48.712;9.016;2024-03-23T13:31:45;96134.66;;;8.53;53.06
61769;BME280;47669;48.712;9.016;2024-03-23T13:34:11;96124.69;;;9.39;50.64
61769;BME280;47669;48.712;9.016;2024-03-23T13:36:36;96131.22;;;8.98;51.99
61769;BME280;47669;48.712;9.016;2024-03-23T13:39:04;96129.53;;;9.74;54.29
61769;BME280;47669;48.712;9.016;2024-03-23T13:41:48;96132.91;;;9.81;56.65
61769;BME280;47669;48.712;9.016;2024-03-23T13:44:13;96132.81;;;9.94;53.99
61769;BME280;47669;48.712;9.016;2024-03-23T13:46:40;96142.19;;;9.33;55.91
61769;BME280;47669;48.712;9.016;2024-03-23T13:49:27;96140.13;;;9.42;57.25
61769;BME280;47669;48.712;9.016;2024-03-23T13:51:57;96137.56;;;8.84;57.23
61769;BME280;47669;48.712;9.016;2024-03-23T13:54:26;96146.25;;;8.19;61.38
61769;BME280;47669;48.712;9.016;2024-03-23T13:56:52;96146.88;;;8.01;62.69
61769;BME280;47669;48.712;9.016;2024-03-23T13:59:18;96151.31;;;7.61;63.86
61769;BME280;47669;48.712;9.016;2024-03-23T14:01:44;96160.81;;;7.42;66.39
61769;BME280;47669;48.712;9.016;2024-03-23T14:04:13;96176.34;;;7.23;66.53
61769;BME280;47669;48.712;9.016;2024-03-23T14:06:39;96194.09;;;5.82;78.25
61769;BME280;47669;48.712;9.016;2024-03-23T14:09:05;96173.41;;;5.65;81.23